Aidavita — IBNP — position and weather

sailwx.info

Track history (hours):
 
Tides and Currents Weather Stations Pressure Air Temp Water Temp Dewpoint Dewpoint Depression Visibility Wind Speed Wind Dir Waves Ship Positions

Aidavita

Last reported at 2018-Jul-17 22:19 UTC. Time now 2018-Jul-18 10:16 UTC.
Position N 49°10' W 058°24'.

Length 203 m; draft 6.3 m.

Type: Passenger vessel. MMSI: 247114900.

Date/timePositionNaut miles runAvg speedWind from/ knotsBaromVisibWave heightAir tempDewpointWater temp
2018-Jul-17 22:19N 49°10' W 058°24'515.1
2018-Jul-17 22:00N 49°08' W 058°18'816.1
2018-Jul-17 21:30N 49°03' W 058°08'611.1
2018-Jul-17 21:00N 48°59' W 058°02'4 7.7
2018-Jul-17 20:30N 48°58' W 057°57'0 0.0
2018-Jul-17 20:00N 48°58' W 057°57'0 0.0
2018-Jul-17 19:30N 48°58' W 057°57'0 0.0
2018-Jul-17 19:00N 48°58' W 057°57'0 0.0
2018-Jul-17 18:30N 48°58' W 057°57'0 0.0
2018-Jul-17 18:00N 48°58' W 057°57'0 0.0
2018-Jul-17 17:30N 48°58' W 057°57'0 0.0
2018-Jul-17 17:00N 48°58' W 057°57'0 0.0
2018-Jul-17 16:30N 48°58' W 057°57'0 0.0
2018-Jul-17 16:00N 48°58' W 057°57'0 0.0
2018-Jul-17 15:30N 48°58' W 057°57'0 0.0
2018-Jul-17 15:00N 48°58' W 057°57'0 0.0
2018-Jul-17 14:27N 48°58' W 057°57'0 0.0
2018-Jul-17 14:00N 48°58' W 057°57'0 0.0
2018-Jul-17 13:30N 48°58' W 057°57'0 0.0
2018-Jul-17 13:00N 48°58' W 057°57'0 0.0
2018-Jul-17 12:30N 48°58' W 057°57'0 0.0
2018-Jul-17 12:00N 48°58' W 057°57'0 0.0
2018-Jul-17 11:27N 48°58' W 057°57'0 0.0
2018-Jul-17 11:00N 48°58' W 057°57'0 0.0
2018-Jul-17 10:30N 48°58' W 057°57'0 0.0
2018-Jul-17 10:01N 48°58' W 057°57'4 8.4
2018-Jul-17 09:30N 48°59' W 058°03'713.5
2018-Jul-17 09:00N 49°04' W 058°09'510.1
2018-Jul-17 08:30N 49°06' W 058°17'510.2
2018-Jul-17 08:00N 49°10' W 058°22'267 8.5
2018-Jul-16 00:31N 47°07' W 052°26'218.1
2018-Jul-16 00:26N 47°09' W 052°25'918.1
2018-Jul-15 23:56N 47°18' W 052°22'918.4
2018-Jul-15 23:26N 47°26' W 052°18'816.2
2018-Jul-15 22:57N 47°32' W 052°27'816.5
2018-Jul-15 22:27N 47°34' W 052°39'2 5.2
2018-Jul-15 21:59N 47°34' W 052°42'0 0.0
2018-Jul-15 21:30N 47°34' W 052°42'0 0.0
2018-Jul-15 21:00N 47°34' W 052°42'0 0.0
2018-Jul-15 20:30N 47°34' W 052°42'0 0.0
2018-Jul-15 20:00N 47°34' W 052°42'0 0.0
2018-Jul-15 19:30N 47°34' W 052°42'0 0.0
2018-Jul-15 18:57N 47°34' W 052°42'0 0.0
2018-Jul-15 18:27N 47°34' W 052°42'0 0.0
2018-Jul-15 18:00N 47°34' W 052°42'0 0.0
2018-Jul-15 17:30N 47°34' W 052°42'0 0.0
2018-Jul-15 17:00N 47°34' W 052°42'0 0.0
2018-Jul-15 16:30N 47°34' W 052°42'0 0.0
2018-Jul-15 16:00N 47°34' W 052°42'0 0.0
2018-Jul-15 15:30N 47°34' W 052°42'0 0.0
2018-Jul-15 15:00N 47°34' W 052°42'0 0.0
2018-Jul-15 14:24N 47°34' W 052°42'0 0.0
2018-Jul-15 14:00N 47°34' W 052°42'0 0.0
2018-Jul-15 13:30N 47°34' W 052°42'0 0.0
2018-Jul-15 13:00N 47°34' W 052°42'0 0.0
2018-Jul-15 12:30N 47°34' W 052°42'0 0.0
2018-Jul-15 11:57N 47°34' W 052°42'0 0.0
2018-Jul-15 11:30N 47°34' W 052°42'0 0.0
2018-Jul-15 11:00N 47°34' W 052°42'0 0.0
2018-Jul-15 10:30N 47°34' W 052°42'0 0.0
2018-Jul-15 10:00N 47°34' W 052°42'0 0.0
2018-Jul-15 09:30N 47°34' W 052°42'0 0.2
2018-Jul-15 08:59N 47°34' W 052°42'3 6.0
2018-Jul-15 08:28N 47°34' W 052°38'713.9
2018-Jul-15 07:58N 47°32' W 052°28'815.3
2018-Jul-15 07:27N 47°27' W 052°18'917.2
2018-Jul-15 06:56N 47°19' W 052°21'  
2018-Jul-08 23:52N 46°50' W 071°08'3 3.5
2018-Jul-08 23:01N 46°49' W 071°12'0 0.0
2018-Jul-08 22:44N 46°49' W 071°12'0 0.0
2018-Jul-08 22:16N 46°49' W 071°12'0 0.0
2018-Jul-08 21:44N 46°49' W 071°12'0 0.0
2018-Jul-08 21:10N 46°49' W 071°12'0 0.0
2018-Jul-08 20:56N 46°49' W 071°12'0 0.0
2018-Jul-08 17:56N 46°49' W 071°12'0 0.0
2018-Jul-08 17:13N 46°49' W 071°12'0 0.0
2018-Jul-08 16:59N 46°49' W 071°12'0 0.0
2018-Jul-08 16:13N 46°49' W 071°12'0 0.0
2018-Jul-08 15:50N 46°49' W 071°12'0 0.0
2018-Jul-08 15:19N 46°49' W 071°12'0 0.0
2018-Jul-08 14:14N 46°49' W 071°12'0 0.0
2018-Jul-08 13:53N 46°49' W 071°12'0 0.0
2018-Jul-08 13:23N 46°49' W 071°12'83 7.9
2018-Jul-08 02:50N 46°08' W 072°57'412.0
2018-Jul-08 02:29N 46°05' W 073°01'613.3
2018-Jul-08 02:00N 46°02' W 073°10'713.1
2018-Jul-08 01:30N 45°56' W 073°13'713.2
2018-Jul-08 01:00N 45°50' W 073°17'713.7
2018-Jul-08 00:30N 45°45' W 073°24'713.9
2018-Jul-08 00:01N 45°39' W 073°29'611.1
2018-Jul-07 23:27N 45°33' W 073°31'  
Track history (hours):
 
Tides and Currents Weather Stations Pressure Air Temp Water Temp Dewpoint Dewpoint Depression Visibility Wind Speed Wind Dir Waves Ship Positions

Aidavita

Last reported at 2018-Jul-17 22:19 UTC. Time now 2018-Jul-18 10:16 UTC.
Position N 49°10' W 058°24'.

Length 203 m; draft 6.3 m.

Type: Passenger vessel. MMSI: 247114900.

Date/timePositionNaut miles runAvg speedWind from/ knotsBaromVisibWave heightAir tempDewpointWater temp
2018-Jul-17 22:19N 49°10' W 058°24'515.1
2018-Jul-17 22:00N 49°08' W 058°18'816.1
2018-Jul-17 21:30N 49°03' W 058°08'611.1
2018-Jul-17 21:00N 48°59' W 058°02'4 7.7
2018-Jul-17 20:30N 48°58' W 057°57'0 0.0
2018-Jul-17 20:00N 48°58' W 057°57'0 0.0
2018-Jul-17 19:30N 48°58' W 057°57'0 0.0
2018-Jul-17 19:00N 48°58' W 057°57'0 0.0
2018-Jul-17 18:30N 48°58' W 057°57'0 0.0
2018-Jul-17 18:00N 48°58' W 057°57'0 0.0
2018-Jul-17 17:30N 48°58' W 057°57'0 0.0
2018-Jul-17 17:00N 48°58' W 057°57'0 0.0
2018-Jul-17 16:30N 48°58' W 057°57'0 0.0
2018-Jul-17 16:00N 48°58' W 057°57'0 0.0
2018-Jul-17 15:30N 48°58' W 057°57'0 0.0
2018-Jul-17 15:00N 48°58' W 057°57'0 0.0
2018-Jul-17 14:27N 48°58' W 057°57'0 0.0
2018-Jul-17 14:00N 48°58' W 057°57'0 0.0
2018-Jul-17 13:30N 48°58' W 057°57'0 0.0
2018-Jul-17 13:00N 48°58' W 057°57'0 0.0
2018-Jul-17 12:30N 48°58' W 057°57'0 0.0
2018-Jul-17 12:00N 48°58' W 057°57'0 0.0
2018-Jul-17 11:27N 48°58' W 057°57'0 0.0
2018-Jul-17 11:00N 48°58' W 057°57'0 0.0
2018-Jul-17 10:30N 48°58' W 057°57'0 0.0
2018-Jul-17 10:01N 48°58' W 057°57'4 8.4
2018-Jul-17 09:30N 48°59' W 058°03'713.5
2018-Jul-17 09:00N 49°04' W 058°09'510.1
2018-Jul-17 08:30N 49°06' W 058°17'510.2
2018-Jul-17 08:00N 49°10' W 058°22'267 8.5
2018-Jul-16 00:31N 47°07' W 052°26'218.1
2018-Jul-16 00:26N 47°09' W 052°25'918.1
2018-Jul-15 23:56N 47°18' W 052°22'918.4
2018-Jul-15 23:26N 47°26' W 052°18'816.2
2018-Jul-15 22:57N 47°32' W 052°27'816.5
2018-Jul-15 22:27N 47°34' W 052°39'2 5.2
2018-Jul-15 21:59N 47°34' W 052°42'0 0.0
2018-Jul-15 21:30N 47°34' W 052°42'0 0.0
2018-Jul-15 21:00N 47°34' W 052°42'0 0.0
2018-Jul-15 20:30N 47°34' W 052°42'0 0.0
2018-Jul-15 20:00N 47°34' W 052°42'0 0.0
2018-Jul-15 19:30N 47°34' W 052°42'0 0.0
2018-Jul-15 18:57N 47°34' W 052°42'0 0.0
2018-Jul-15 18:27N 47°34' W 052°42'0 0.0
2018-Jul-15 18:00N 47°34' W 052°42'0 0.0
2018-Jul-15 17:30N 47°34' W 052°42'0 0.0
2018-Jul-15 17:00N 47°34' W 052°42'0 0.0
2018-Jul-15 16:30N 47°34' W 052°42'0 0.0
2018-Jul-15 16:00N 47°34' W 052°42'0 0.0
2018-Jul-15 15:30N 47°34' W 052°42'0 0.0
2018-Jul-15 15:00N 47°34' W 052°42'0 0.0
2018-Jul-15 14:24N 47°34' W 052°42'0 0.0
2018-Jul-15 14:00N 47°34' W 052°42'0 0.0
2018-Jul-15 13:30N 47°34' W 052°42'0 0.0
2018-Jul-15 13:00N 47°34' W 052°42'0 0.0
2018-Jul-15 12:30N 47°34' W 052°42'0 0.0
2018-Jul-15 11:57N 47°34' W 052°42'0 0.0
2018-Jul-15 11:30N 47°34' W 052°42'0 0.0
2018-Jul-15 11:00N 47°34' W 052°42'0 0.0
2018-Jul-15 10:30N 47°34' W 052°42'0 0.0
2018-Jul-15 10:00N 47°34' W 052°42'0 0.0
2018-Jul-15 09:30N 47°34' W 052°42'0 0.2
2018-Jul-15 08:59N 47°34' W 052°42'3 6.0
2018-Jul-15 08:28N 47°34' W 052°38'713.9
2018-Jul-15 07:58N 47°32' W 052°28'815.3
2018-Jul-15 07:27N 47°27' W 052°18'917.2
2018-Jul-15 06:56N 47°19' W 052°21'  
2018-Jul-08 23:52N 46°50' W 071°08'3 3.5
2018-Jul-08 23:01N 46°49' W 071°12'0 0.0
2018-Jul-08 22:44N 46°49' W 071°12'0 0.0
2018-Jul-08 22:16N 46°49' W 071°12'0 0.0
2018-Jul-08 21:44N 46°49' W 071°12'0 0.0
2018-Jul-08 21:10N 46°49' W 071°12'0 0.0
2018-Jul-08 20:56N 46°49' W 071°12'0 0.0
2018-Jul-08 17:56N 46°49' W 071°12'0 0.0
2018-Jul-08 17:13N 46°49' W 071°12'0 0.0
2018-Jul-08 16:59N 46°49' W 071°12'0 0.0
2018-Jul-08 16:13N 46°49' W 071°12'0 0.0
2018-Jul-08 15:50N 46°49' W 071°12'0 0.0
2018-Jul-08 15:19N 46°49' W 071°12'0 0.0
2018-Jul-08 14:14N 46°49' W 071°12'0 0.0
2018-Jul-08 13:53N 46°49' W 071°12'0 0.0
2018-Jul-08 13:23N 46°49' W 071°12'83 7.9
2018-Jul-08 02:50N 46°08' W 072°57'412.0
2018-Jul-08 02:29N 46°05' W 073°01'613.3
2018-Jul-08 02:00N 46°02' W 073°10'713.1
2018-Jul-08 01:30N 45°56' W 073°13'713.2
2018-Jul-08 01:00N 45°50' W 073°17'713.7
2018-Jul-08 00:30N 45°45' W 073°24'713.9
2018-Jul-08 00:01N 45°39' W 073°29'611.1
2018-Jul-07 23:27N 45°33' W 073°31'  

Dump ship's entire track history